| Date | Time | Temp. (oF) | Dew Point (oF) | Rel. Hum. (%) | Press. (in.) | Wind Dir. | Wind Speed (mph) | Hourly Rainfall (in.) |
|
|---|---|---|---|---|---|---|---|---|---|
| 1 | 05/17 | 00:00 | 56 | 48 | 76 | 30.02 | SSE | 8 | 0.00 |
| 2 | 05/16 | 23:00 | 57 | 48 | 72 | 30.02 | S | 6 | 0.00 |
| 3 | 05/16 | 22:00 | 59 | 47 | 65 | 29.99 | SSE | 7 | 0.00 |
| 4 | 05/16 | 21:00 | 62 | 49 | 63 | 29.95 | ESE | 7 | 0.00 |
| 5 | 05/16 | 20:00 | 66 | 46 | 49 | 29.92 | ESE | 3 | 0.00 |
| 6 | 05/16 | 19:00 | 68 | 47 | 48 | 29.91 | SE | 4 | 0.00 |
| 7 | 05/16 | 18:00 | 69 | 47 | 47 | 29.90 | ESE | 4 | 0.00 |
| 8 | 05/16 | 17:00 | 71 | 47 | 44 | 29.89 | E | 4 | 0.00 |
| 9 | 05/16 | 16:00 | 71 | 47 | 44 | 29.89 | SE | 5 | 0.00 |
| 10 | 05/16 | 15:00 | 71 | 47 | 43 | 29.92 | SE | 6 | 0.00 |
| 11 | 05/16 | 14:00 | 70 | 48 | 46 | 29.93 | ESE | 2 | 0.00 |
| 12 | 05/16 | 13:00 | 69 | 46 | 45 | 29.95 | S | 0 | 0.00 |
| 13 | 05/16 | 12:00 | 68 | 47 | 48 | 29.96 | SSE | 3 | 0.00 |
| 14 | 05/16 | 11:00 | 65 | 47 | 53 | 29.97 | NE | 6 | 0.00 |
| 15 | 05/16 | 10:00 | 62 | 46 | 56 | 29.97 | NE | 10 | 0.00 |
| 16 | 05/16 | 09:00 | 59 | 44 | 58 | 29.96 | ESE | 7 | 0.00 |
| 17 | 05/16 | 08:00 | 54 | 41 | 63 | 29.96 | ESE | 2 | 0.00 |
| 18 | 05/16 | 07:00 | 47 | 42 | 84 | 29.95 | NNE | 0 | 0.00 |
| 19 | 05/16 | 06:00 | 45 | 38 | 78 | 29.94 | N | 0 | 0.00 |
| 20 | 05/16 | 05:00 | 46 | 37 | 73 | 29.92 | N | 1 | 0.00 |
| 21 | 05/16 | 04:00 | 50 | 36 | 59 | 29.90 | N | 1 | 0.00 |
| 22 | 05/16 | 03:00 | 50 | 37 | 62 | 29.88 | W | 0 | 0.00 |
| 23 | 05/16 | 02:00 | 53 | 38 | 57 | 29.86 | NW | 1 | 0.00 |
| 24 | 05/16 | 01:00 | 56 | 37 | 49 | 29.86 | SSE | 0 | 0.00 |